sensor_id;sensor_type;location;lat;lon;timestamp;pressure;altitude;pressure_sealevel;temperature;humidity
41632;BME280;37452;51.938;4.624;2023-05-03T00:01:47;79015.88;;;-142.75;100.00
41632;BME280;37452;51.938;4.624;2023-05-03T00:04:14;79021.78;;;-142.75;100.00
41632;BME280;37452;51.938;4.624;2023-05-03T00:06:42;79025.72;;;-142.75;100.00
41632;BME280;37452;51.938;4.624;2023-05-03T00:09:07;79015.88;;;-142.75;100.00
41632;BME280;37452;51.938;4.624;2023-05-03T00:11:34;78980.44;;;-142.75;100.00
41632;BME280;37452;51.938;4.624;2023-05-03T00:14:00;78992.25;;;-142.75;100.00
41632;BME280;37452;51.938;4.624;2023-05-03T00:16:25;78996.19;;;-142.75;100.00
41632;BME280;37452;51.938;4.624;2023-05-03T00:18:50;78988.31;;;-142.75;100.00
41632;BME280;37452;51.938;4.624;2023-05-03T00:21:15;78984.38;;;-142.75;100.00
41632;BME280;37452;51.938;4.624;2023-05-03T00:23:41;79000.13;;;-142.75;100.00
41632;BME280;37452;51.938;4.624;2023-05-03T00:26:06;79011.94;;;-142.75;100.00
41632;BME280;37452;51.938;4.624;2023-05-03T00:28:31;79017.84;;;-142.75;100.00
41632;BME280;37452;51.938;4.624;2023-05-03T00:31:04;79021.78;;;-142.75;100.00
41632;BME280;37452;51.938;4.624;2023-05-03T00:33:30;79021.78;;;-142.75;100.00
41632;BME280;37452;51.938;4.624;2023-05-03T00:35:55;79015.88;;;-142.75;100.00
41632;BME280;37452;51.938;4.624;2023-05-03T00:38:20;79025.72;;;-142.75;100.00
41632;BME280;37452;51.938;4.624;2023-05-03T00:40:52;79031.66;;;-142.75;100.00
41632;BME280;37452;51.938;4.624;2023-05-03T00:43:17;79033.63;;;-142.75;100.00
41632;BME280;37452;51.938;4.624;2023-05-03T00:45:42;79035.59;;;-142.75;100.00
41632;BME280;37452;51.938;4.624;2023-05-03T00:48:10;79033.63;;;-142.75;100.00
41632;BME280;37452;51.938;4.624;2023-05-03T00:50:36;79041.50;;;-142.75;100.00
41632;BME280;37452;51.938;4.624;2023-05-03T00:53:01;79033.63;;;-142.75;100.00
41632;BME280;37452;51.938;4.624;2023-05-03T00:55:28;79025.72;;;-142.75;100.00
41632;BME280;37452;51.938;4.624;2023-05-03T00:57:54;79031.66;;;-142.75;100.00
41632;BME280;37452;51.938;4.624;2023-05-03T01:00:20;79015.88;;;-142.75;100.00
41632;BME280;37452;51.938;4.624;2023-05-03T01:02:46;79015.88;;;-142.75;100.00
41632;BME280;37452;51.938;4.624;2023-05-03T01:05:11;79017.84;;;-142.75;100.00
41632;BME280;37452;51.938;4.624;2023-05-03T01:10:37;79031.66;;;-142.75;100.00
41632;BME280;37452;51.938;4.624;2023-05-03T01:18:06;79067.09;;;-142.75;100.00
41632;BME280;37452;51.938;4.624;2023-05-03T01:20:34;79049.38;;;-142.75;100.00
41632;BME280;37452;51.938;4.624;2023-05-03T01:23:04;79073.00;;;-142.75;100.00
41632;BME280;37452;51.938;4.624;2023-05-03T01:25:30;79074.97;;;-142.75;100.00
41632;BME280;37452;51.938;4.624;2023-05-03T01:27:55;79094.69;;;-142.75;100.00
41632;BME280;37452;51.938;4.624;2023-05-03T01:30:21;79116.34;;;-142.75;100.00
41632;BME280;37452;51.938;4.624;2023-05-03T01:35:46;79104.53;;;-142.75;100.00
41632;BME280;37452;51.938;4.624;2023-05-03T01:38:14;79118.31;;;-142.75;100.00
41632;BME280;37452;51.938;4.624;2023-05-03T01:40:46;79106.50;;;-142.75;100.00
41632;BME280;37452;51.938;4.624;2023-05-03T01:43:12;79090.72;;;-142.75;100.00
41632;BME280;37452;51.938;4.624;2023-05-03T01:45:39;79104.53;;;-142.75;100.00
41632;BME280;37452;51.938;4.624;2023-05-03T01:48:08;79078.91;;;-142.75;100.00
41632;BME280;37452;51.938;4.624;2023-05-03T01:50:34;79071.03;;;-142.75;100.00
41632;BME280;37452;51.938;4.624;2023-05-03T01:53:00;79067.09;;;-142.75;100.00
41632;BME280;37452;51.938;4.624;2023-05-03T01:55:25;79051.34;;;-142.75;100.00
41632;BME280;37452;51.938;4.624;2023-05-03T01:57:50;79039.53;;;-142.75;100.00
41632;BME280;37452;51.938;4.624;2023-05-03T02:00:15;79055.28;;;-142.75;100.00
41632;BME280;37452;51.938;4.624;2023-05-03T02:02:41;79029.66;;;-142.75;100.00
41632;BME280;37452;51.938;4.624;2023-05-03T02:05:07;79019.81;;;-142.75;100.00
41632;BME280;37452;51.938;4.624;2023-05-03T02:07:33;79002.09;;;-142.75;100.00
41632;BME280;37452;51.938;4.624;2023-05-03T02:09:58;78998.16;;;-142.75;100.00
41632;BME280;37452;51.938;4.624;2023-05-03T02:12:23;79015.88;;;-142.75;100.00
41632;BME280;37452;51.938;4.624;2023-05-03T02:14:49;79027.69;;;-142.75;100.00
41632;BME280;37452;51.938;4.624;2023-05-03T02:17:15;79009.97;;;-142.75;100.00
41632;BME280;37452;51.938;4.624;2023-05-03T02:19:42;79031.66;;;-142.75;100.00
41632;BME280;37452;51.938;4.624;2023-05-03T02:22:07;79059.22;;;-142.75;100.00
41632;BME280;37452;51.938;4.624;2023-05-03T02:24:33;79059.22;;;-142.75;100.00
41632;BME280;37452;51.938;4.624;2023-05-03T02:27:00;79047.41;;;-142.75;100.00
41632;BME280;37452;51.938;4.624;2023-05-03T02:29:28;79059.22;;;-142.75;100.00
41632;BME280;37452;51.938;4.624;2023-05-03T02:31:53;79069.06;;;-142.75;100.00
41632;BME280;37452;51.938;4.624;2023-05-03T02:34:18;79074.97;;;-142.75;100.00
41632;BME280;37452;51.938;4.624;2023-05-03T02:36:44;79073.00;;;-142.75;100.00
41632;BME280;37452;51.938;4.624;2023-05-03T02:39:09;79078.91;;;-142.75;100.00
41632;BME280;37452;51.938;4.624;2023-05-03T02:41:35;79084.81;;;-142.75;100.00
41632;BME280;37452;51.938;4.624;2023-05-03T02:44:00;79108.47;;;-142.75;100.00
41632;BME280;37452;51.938;4.624;2023-05-03T02:46:25;79122.25;;;-142.75;100.00
41632;BME280;37452;51.938;4.624;2023-05-03T02:48:50;79130.13;;;-142.75;100.00
41632;BME280;37452;51.938;4.624;2023-05-03T02:51:15;79145.88;;;-142.75;100.00
41632;BME280;37452;51.938;4.624;2023-05-03T02:53:41;79136.03;;;-142.75;100.00
41632;BME280;37452;51.938;4.624;2023-05-03T02:56:06;79136.03;;;-142.75;100.00
41632;BME280;37452;51.938;4.624;2023-05-03T02:58:32;79120.28;;;-142.75;100.00
41632;BME280;37452;51.938;4.624;2023-05-03T03:00:57;79116.34;;;-142.75;100.00
41632;BME280;37452;51.938;4.624;2023-05-03T03:03:22;79122.25;;;-142.75;100.00
41632;BME280;37452;51.938;4.624;2023-05-03T03:05:47;79118.31;;;-142.75;100.00
41632;BME280;37452;51.938;4.624;2023-05-03T03:08:13;79128.16;;;-142.75;100.00
41632;BME280;37452;51.938;4.624;2023-05-03T03:10:38;79116.34;;;-142.75;100.00
41632;BME280;37452;51.938;4.624;2023-05-03T03:13:03;79122.25;;;-142.75;100.00
41632;BME280;37452;51.938;4.624;2023-05-03T03:15:29;79130.13;;;-142.75;100.00
41632;BME280;37452;51.938;4.624;2023-05-03T03:17:54;79141.94;;;-142.75;100.00
41632;BME280;37452;51.938;4.624;2023-05-03T03:20:22;79130.13;;;-142.75;100.00
41632;BME280;37452;51.938;4.624;2023-05-03T03:22:47;79139.97;;;-142.75;100.00
41632;BME280;37452;51.938;4.624;2023-05-03T03:25:12;79145.88;;;-142.75;100.00
41632;BME280;37452;51.938;4.624;2023-05-03T03:27:41;79149.81;;;-142.75;100.00
41632;BME280;37452;51.938;4.624;2023-05-03T03:30:06;79165.59;;;-142.75;100.00
41632;BME280;37452;51.938;4.624;2023-05-03T03:32:32;79157.72;;;-142.75;100.00
41632;BME280;37452;51.938;4.624;2023-05-03T03:34:57;79153.75;;;-142.75;100.00
41632;BME280;37452;51.938;4.624;2023-05-03T03:37:22;79149.81;;;-142.75;100.00
41632;BME280;37452;51.938;4.624;2023-05-03T03:39:47;79149.81;;;-142.75;100.00
41632;BME280;37452;51.938;4.624;2023-05-03T03:42:13;79145.88;;;-142.75;100.00
41632;BME280;37452;51.938;4.624;2023-05-03T03:44:38;79147.84;;;-142.75;100.00
41632;BME280;37452;51.938;4.624;2023-05-03T03:47:04;79141.94;;;-142.75;100.00
41632;BME280;37452;51.938;4.624;2023-05-03T03:49:29;79134.06;;;-142.75;100.00
41632;BME280;37452;51.938;4.624;2023-05-03T03:51:54;79165.59;;;-142.75;100.00
41632;BME280;37452;51.938;4.624;2023-05-03T03:54:20;79161.66;;;-142.75;100.00
41632;BME280;37452;51.938;4.624;2023-05-03T03:56:45;79161.66;;;-142.75;100.00
41632;BME280;37452;51.938;4.624;2023-05-03T03:59:10;79159.69;;;-142.75;100.00
41632;BME280;37452;51.938;4.624;2023-05-03T04:01:35;79187.25;;;-142.75;100.00
41632;BME280;37452;51.938;4.624;2023-05-03T04:04:00;79208.91;;;-142.75;100.00
41632;BME280;37452;51.938;4.624;2023-05-03T04:06:26;79212.84;;;-142.75;100.00
41632;BME280;37452;51.938;4.624;2023-05-03T04:08:51;79248.31;;;-142.75;100.00
41632;BME280;37452;51.938;4.624;2023-05-03T04:11:16;79222.72;;;-142.75;100.00
41632;BME280;37452;51.938;4.624;2023-05-03T04:13:41;79236.50;;;-142.75;100.00
41632;BME280;37452;51.938;4.624;2023-05-03T04:16:07;79236.50;;;-142.75;100.00
41632;BME280;37452;51.938;4.624;2023-05-03T04:18:32;79242.41;;;-142.75;100.00
41632;BME280;37452;51.938;4.624;2023-05-03T04:20:58;79224.69;;;-142.75;100.00
41632;BME280;37452;51.938;4.624;2023-05-03T04:23:23;79224.69;;;-142.75;100.00
41632;BME280;37452;51.938;4.624;2023-05-03T04:25:48;79224.69;;;-142.75;100.00
41632;BME280;37452;51.938;4.624;2023-05-03T04:28:13;79242.41;;;-142.75;100.00
41632;BME280;37452;51.938;4.624;2023-05-03T04:30:39;79226.66;;;-142.75;100.00
41632;BME280;37452;51.938;4.624;2023-05-03T04:33:05;79208.91;;;-142.75;100.00
41632;BME280;37452;51.938;4.624;2023-05-03T04:35:30;79230.59;;;-142.75;100.00
41632;BME280;37452;51.938;4.624;2023-05-03T04:37:56;79208.91;;;-142.75;100.00
41632;BME280;37452;51.938;4.624;2023-05-03T04:40:21;79193.16;;;-142.75;100.00
41632;BME280;37452;51.938;4.624;2023-05-03T04:42:46;79187.25;;;-142.75;100.00
41632;BME280;37452;51.938;4.624;2023-05-03T04:45:12;79187.25;;;-142.75;100.00
41632;BME280;37452;51.938;4.624;2023-05-03T04:47:41;79185.28;;;-142.75;100.00
41632;BME280;37452;51.938;4.624;2023-05-03T04:50:07;79165.59;;;-142.75;100.00
41632;BME280;37452;51.938;4.624;2023-05-03T04:52:32;79173.47;;;-142.75;100.00
41632;BME280;37452;51.938;4.624;2023-05-03T04:54:58;79185.28;;;-142.75;100.00
41632;BME280;37452;51.938;4.624;2023-05-03T04:57:23;79173.47;;;-142.75;100.00
41632;BME280;37452;51.938;4.624;2023-05-03T04:59:48;79173.47;;;-142.75;100.00
41632;BME280;37452;51.938;4.624;2023-05-03T05:02:14;79181.34;;;-142.75;100.00
41632;BME280;37452;51.938;4.624;2023-05-03T05:04:39;79173.47;;;-142.75;100.00
41632;BME280;37452;51.938;4.624;2023-05-03T05:07:05;79163.63;;;-142.75;100.00
41632;BME280;37452;51.938;4.624;2023-05-03T05:09:30;79145.88;;;-142.75;100.00
41632;BME280;37452;51.938;4.624;2023-05-03T05:11:56;79110.44;;;-142.75;100.00
41632;BME280;37452;51.938;4.624;2023-05-03T05:14:21;79106.50;;;-142.75;100.00
41632;BME280;37452;51.938;4.624;2023-05-03T05:16:46;79098.63;;;-142.75;100.00
41632;BME280;37452;51.938;4.624;2023-05-03T05:19:11;79102.56;;;-142.75;100.00
41632;BME280;37452;51.938;4.624;2023-05-03T05:21:37;79076.94;;;-142.75;100.00
41632;BME280;37452;51.938;4.624;2023-05-03T05:24:02;79073.00;;;-142.75;100.00
41632;BME280;37452;51.938;4.624;2023-05-03T05:26:28;79059.22;;;-142.75;100.00
41632;BME280;37452;51.938;4.624;2023-05-03T05:28:53;79031.66;;;-142.75;100.00
41632;BME280;37452;51.938;4.624;2023-05-03T05:31:18;79029.66;;;-142.75;100.00
41632;BME280;37452;51.938;4.624;2023-05-03T05:33:44;79023.75;;;-142.75;100.00
41632;BME280;37452;51.938;4.624;2023-05-03T05:36:09;79009.97;;;-142.75;100.00
41632;BME280;37452;51.938;4.624;2023-05-03T05:38:34;79008.00;;;-142.75;100.00
41632;BME280;37452;51.938;4.624;2023-05-03T05:41:00;78982.41;;;-142.75;100.00
41632;BME280;37452;51.938;4.624;2023-05-03T05:43:26;78980.44;;;-142.75;100.00
41632;BME280;37452;51.938;4.624;2023-05-03T05:45:51;78958.75;;;-142.75;100.00
41632;BME280;37452;51.938;4.624;2023-05-03T05:48:16;78919.38;;;-142.75;100.00
41632;BME280;37452;51.938;4.624;2023-05-03T05:50:41;78937.09;;;-142.75;100.00
41632;BME280;37452;51.938;4.624;2023-05-03T05:53:07;78905.59;;;-142.75;100.00
41632;BME280;37452;51.938;4.624;2023-05-03T05:55:33;78897.72;;;-142.75;100.00
41632;BME280;37452;51.938;4.624;2023-05-03T05:57:58;78897.72;;;-142.75;100.00
41632;BME280;37452;51.938;4.624;2023-05-03T06:00:23;78864.22;;;-142.75;100.00
41632;BME280;37452;51.938;4.624;2023-05-03T06:02:49;78854.38;;;-142.75;100.00
41632;BME280;37452;51.938;4.624;2023-05-03T06:05:14;78856.34;;;-142.75;100.00
41632;BME280;37452;51.938;4.624;2023-05-03T06:07:39;78805.13;;;-142.75;100.00
41632;BME280;37452;51.938;4.624;2023-05-03T06:10:05;78789.38;;;-142.75;100.00
41632;BME280;37452;51.938;4.624;2023-05-03T06:12:30;78750.00;;;-142.75;100.00
41632;BME280;37452;51.938;4.624;2023-05-03T06:14:55;78720.44;;;-142.75;100.00
41632;BME280;37452;51.938;4.624;2023-05-03T06:17:21;78710.59;;;-142.75;100.00
41632;BME280;37452;51.938;4.624;2023-05-03T06:19:47;78679.09;;;-142.75;100.00
41632;BME280;37452;51.938;4.624;2023-05-03T06:22:13;78665.28;;;-142.75;100.00
41632;BME280;37452;51.938;4.624;2023-05-03T06:24:41;78665.28;;;-142.75;100.00
41632;BME280;37452;51.938;4.624;2023-05-03T06:27:07;78700.75;;;-142.75;100.00
41632;BME280;37452;51.938;4.624;2023-05-03T06:29:32;78677.13;;;-142.75;100.00
41632;BME280;37452;51.938;4.624;2023-05-03T06:31:57;78667.25;;;-142.75;100.00
41632;BME280;37452;51.938;4.624;2023-05-03T06:34:23;78649.53;;;-142.75;100.00
41632;BME280;37452;51.938;4.624;2023-05-03T06:36:48;78673.19;;;-142.75;100.00
41632;BME280;37452;51.938;4.624;2023-05-03T06:39:14;78679.09;;;-142.75;100.00
41632;BME280;37452;51.938;4.624;2023-05-03T06:41:40;78645.59;;;-142.75;100.00
41632;BME280;37452;51.938;4.624;2023-05-03T06:44:05;78618.03;;;-142.75;100.00
41632;BME280;37452;51.938;4.624;2023-05-03T06:46:31;78612.13;;;-142.75;100.00
41632;BME280;37452;51.938;4.624;2023-05-03T06:48:56;78620.00;;;-142.75;100.00
41632;BME280;37452;51.938;4.624;2023-05-03T06:51:22;78657.41;;;-142.75;100.00
41632;BME280;37452;51.938;4.624;2023-05-03T06:53:51;78592.44;;;-142.75;100.00
41632;BME280;37452;51.938;4.624;2023-05-03T06:56:16;78574.69;;;-142.75;100.00
41632;BME280;37452;51.938;4.624;2023-05-03T06:58:42;78584.56;;;-142.75;100.00
41632;BME280;37452;51.938;4.624;2023-05-03T07:01:07;78549.09;;;-142.75;100.00
41632;BME280;37452;51.938;4.624;2023-05-03T07:03:32;78541.22;;;-142.75;100.00
41632;BME280;37452;51.938;4.624;2023-05-03T07:05:58;78523.50;;;-142.75;100.00
41632;BME280;37452;51.938;4.624;2023-05-03T07:08:23;78531.38;;;-142.75;100.00
41632;BME280;37452;51.938;4.624;2023-05-03T07:10:48;78547.13;;;-142.75;100.00
41632;BME280;37452;51.938;4.624;2023-05-03T07:13:13;78529.41;;;-142.75;100.00
41632;BME280;37452;51.938;4.624;2023-05-03T07:15:39;78513.66;;;-142.75;100.00
41632;BME280;37452;51.938;4.624;2023-05-03T07:18:04;78462.44;;;-142.75;100.00
41632;BME280;37452;51.938;4.624;2023-05-03T07:20:29;78495.94;;;-142.75;100.00
41632;BME280;37452;51.938;4.624;2023-05-03T07:22:54;78470.31;;;-142.75;98.95
41632;BME280;37452;51.938;4.624;2023-05-03T07:25:19;78490.00;;;-142.75;97.13
41632;BME280;37452;51.938;4.624;2023-05-03T07:27:45;78476.22;;;-142.75;98.84
41632;BME280;37452;51.938;4.624;2023-05-03T07:30:10;78450.63;;;-142.75;98.68
41632;BME280;37452;51.938;4.624;2023-05-03T07:32:36;78450.63;;;-142.75;94.35
41632;BME280;37452;51.938;4.624;2023-05-03T07:35:01;78446.69;;;-142.75;95.55
41632;BME280;37452;51.938;4.624;2023-05-03T07:37:27;78427.00;;;-142.75;95.06
41632;BME280;37452;51.938;4.624;2023-05-03T07:39:52;78442.75;;;-142.75;91.71
41632;BME280;37452;51.938;4.624;2023-05-03T07:42:17;78434.88;;;-142.75;91.85
41632;BME280;37452;51.938;4.624;2023-05-03T07:44:43;78428.97;;;-142.75;89.53
41632;BME280;37452;51.938;4.624;2023-05-03T07:47:08;78411.25;;;-142.75;89.07
41632;BME280;37452;51.938;4.624;2023-05-03T07:49:35;78391.53;;;-142.75;87.49
41632;BME280;37452;51.938;4.624;2023-05-03T07:52:01;78393.50;;;-142.75;89.92
41632;BME280;37452;51.938;4.624;2023-05-03T07:54:27;78405.34;;;-142.75;89.33
41632;BME280;37452;51.938;4.624;2023-05-03T07:56:52;78432.91;;;-142.75;88.75
41632;BME280;37452;51.938;4.624;2023-05-03T07:59:17;78450.63;;;-142.75;89.47
41632;BME280;37452;51.938;4.624;2023-05-03T08:01:42;78446.69;;;-142.75;91.58
41632;BME280;37452;51.938;4.624;2023-05-03T08:04:10;78425.03;;;-142.75;91.93
41632;BME280;37452;51.938;4.624;2023-05-03T08:06:35;78397.44;;;-142.75;90.80
41632;BME280;37452;51.938;4.624;2023-05-03T08:09:02;78391.53;;;-142.75;87.63
41632;BME280;37452;51.938;4.624;2023-05-03T08:11:28;78358.06;;;-142.75;88.56
41632;BME280;37452;51.938;4.624;2023-05-03T08:13:54;78371.84;;;-142.75;88.52
41632;BME280;37452;51.938;4.624;2023-05-03T08:16:19;78373.81;;;-142.75;87.10
41632;BME280;37452;51.938;4.624;2023-05-03T08:18:45;78354.13;;;-142.75;87.85
41632;BME280;37452;51.938;4.624;2023-05-03T08:21:10;78342.31;;;-142.75;87.75
41632;BME280;37452;51.938;4.624;2023-05-03T08:23:37;78318.69;;;-142.75;88.93
41632;BME280;37452;51.938;4.624;2023-05-03T08:26:02;78267.47;;;-142.75;89.08
41632;BME280;37452;51.938;4.624;2023-05-03T08:28:28;78279.28;;;-142.75;85.89
41632;BME280;37452;51.938;4.624;2023-05-03T08:30:54;78228.09;;;-142.75;87.76
41632;BME280;37452;51.938;4.624;2023-05-03T08:33:20;78204.47;;;-142.75;82.94
41632;BME280;37452;51.938;4.624;2023-05-03T08:35:46;78161.13;;;-142.75;81.16
41632;BME280;37452;51.938;4.624;2023-05-03T08:38:11;78102.06;;;-142.75;82.71
41632;BME280;37452;51.938;4.624;2023-05-03T08:40:40;78090.25;;;-142.75;81.22
41632;BME280;37452;51.938;4.624;2023-05-03T08:43:08;78167.03;;;-142.75;79.52
41632;BME280;37452;51.938;4.624;2023-05-03T08:45:34;78143.41;;;-142.75;80.51
41632;BME280;37452;51.938;4.624;2023-05-03T08:47:59;78125.69;;;-142.75;80.57
41632;BME280;37452;51.938;4.624;2023-05-03T08:50:27;78157.19;;;-142.75;79.42
41632;BME280;37452;51.938;4.624;2023-05-03T08:52:53;78167.03;;;-142.75;80.63
41632;BME280;37452;51.938;4.624;2023-05-03T08:55:20;78137.50;;;-142.75;80.31
41632;BME280;37452;51.938;4.624;2023-05-03T08:57:46;78137.50;;;-142.75;78.47
41632;BME280;37452;51.938;4.624;2023-05-03T09:00:11;78135.53;;;-142.75;79.88
41632;BME280;37452;51.938;4.624;2023-05-03T09:02:37;78133.56;;;-142.75;80.55
41632;BME280;37452;51.938;4.624;2023-05-03T09:05:50;78123.72;;;-142.75;80.46
41632;BME280;37452;51.938;4.624;2023-05-03T09:08:00;78082.38;;;-142.75;78.90
41632;BME280;37452;51.938;4.624;2023-05-03T09:10:29;78074.50;;;-142.75;77.17
41632;BME280;37452;51.938;4.624;2023-05-03T09:12:58;78062.69;;;-142.75;78.05
41632;BME280;37452;51.938;4.624;2023-05-03T09:15:29;78031.16;;;-142.75;79.93
41632;BME280;37452;51.938;4.624;2023-05-03T09:20:37;77932.72;;;-142.75;73.28
41632;BME280;37452;51.938;4.624;2023-05-03T09:23:03;77936.66;;;-142.75;73.79
41632;BME280;37452;51.938;4.624;2023-05-03T09:25:44;77952.41;;;-142.75;74.06
41632;BME280;37452;51.938;4.624;2023-05-03T09:28:10;77936.66;;;-142.75;73.89
41632;BME280;37452;51.938;4.624;2023-05-03T09:30:35;77924.84;;;-142.75;73.32
41632;BME280;37452;51.938;4.624;2023-05-03T09:33:00;77901.19;;;-142.75;73.27
41632;BME280;37452;51.938;4.624;2023-05-03T09:35:26;77855.91;;;-142.75;73.55
41632;BME280;37452;51.938;4.624;2023-05-03T09:37:52;77865.75;;;-142.75;72.45
41632;BME280;37452;51.938;4.624;2023-05-03T09:40:18;77830.31;;;-142.75;70.80
41632;BME280;37452;51.938;4.624;2023-05-03T09:43:04;77806.69;;;-142.75;74.18
41632;BME280;37452;51.938;4.624;2023-05-03T09:45:28;77727.94;;;-142.75;71.82
41632;BME280;37452;51.938;4.624;2023-05-03T09:47:55;77751.56;;;-142.75;68.97
41632;BME280;37452;51.938;4.624;2023-05-03T09:50:21;77765.34;;;-142.75;68.55
41632;BME280;37452;51.938;4.624;2023-05-03T09:52:48;77796.84;;;-142.75;70.24
41632;BME280;37452;51.938;4.624;2023-05-03T09:55:15;77798.81;;;-142.75;72.30
41632;BME280;37452;51.938;4.624;2023-05-03T09:57:41;77816.53;;;-142.75;70.85
41632;BME280;37452;51.938;4.624;2023-05-03T10:00:07;77826.38;;;-142.75;71.67
41632;BME280;37452;51.938;4.624;2023-05-03T10:02:32;77822.44;;;-142.75;72.95
41632;BME280;37452;51.938;4.624;2023-05-03T10:04:58;77775.19;;;-142.75;70.89
41632;BME280;37452;51.938;4.624;2023-05-03T10:07:24;77775.19;;;-142.75;67.23
41632;BME280;37452;51.938;4.624;2023-05-03T10:09:51;77834.25;;;-142.75;67.77
41632;BME280;37452;51.938;4.624;2023-05-03T10:12:17;77796.84;;;-142.75;73.09
41632;BME280;37452;51.938;4.624;2023-05-03T10:14:44;77785.03;;;-142.75;69.87
41632;BME280;37452;51.938;4.624;2023-05-03T10:17:15;77720.03;;;-142.75;69.04
41632;BME280;37452;51.938;4.624;2023-05-03T10:19:53;77729.88;;;-142.75;70.21
41632;BME280;37452;51.938;4.624;2023-05-03T10:22:20;77684.59;;;-142.75;72.63
41632;BME280;37452;51.938;4.624;2023-05-03T10:30:07;77619.63;;;-142.75;70.37
41632;BME280;37452;51.938;4.624;2023-05-03T10:32:36;77688.53;;;-142.75;68.37
41632;BME280;37452;51.938;4.624;2023-05-03T10:35:13;77641.28;;;-142.75;68.88
41632;BME280;37452;51.938;4.624;2023-05-03T10:37:40;77684.59;;;-142.75;65.90
41632;BME280;37452;51.938;4.624;2023-05-03T10:40:12;77670.81;;;-142.75;69.62
41632;BME280;37452;51.938;4.624;2023-05-03T10:42:42;77666.88;;;-142.75;69.40
41632;BME280;37452;51.938;4.624;2023-05-03T10:45:08;77623.56;;;-142.75;69.63
41632;BME280;37452;51.938;4.624;2023-05-03T10:47:33;77546.78;;;-142.75;68.89
41632;BME280;37452;51.938;4.624;2023-05-03T10:55:11;77566.47;;;-142.75;65.44
41632;BME280;37452;51.938;4.624;2023-05-03T10:57:37;77662.94;;;-142.75;65.20
41632;BME280;37452;51.938;4.624;2023-05-03T11:00:07;77554.66;;;-142.75;67.60
41632;BME280;37452;51.938;4.624;2023-05-03T11:02:36;77594.03;;;-142.75;63.30
41632;BME280;37452;51.938;4.624;2023-05-03T11:05:03;77601.91;;;-142.75;65.12
41632;BME280;37452;51.938;4.624;2023-05-03T11:07:33;77633.41;;;-142.75;62.89
41632;BME280;37452;51.938;4.624;2023-05-03T11:09:58;77609.78;;;-142.75;63.84
41632;BME280;37452;51.938;4.624;2023-05-03T11:12:23;77672.78;;;-142.75;61.65
41632;BME280;37452;51.938;4.624;2023-05-03T11:14:49;77609.78;;;-142.75;62.45
41632;BME280;37452;51.938;4.624;2023-05-03T11:17:14;77597.97;;;-142.75;62.69
41632;BME280;37452;51.938;4.624;2023-05-03T11:19:41;77582.22;;;-142.75;62.72
41632;BME280;37452;51.938;4.624;2023-05-03T11:22:07;77511.34;;;-142.75;62.43
41632;BME280;37452;51.938;4.624;2023-05-03T11:24:32;77534.97;;;-142.75;61.18
41632;BME280;37452;51.938;4.624;2023-05-03T11:26:58;77531.03;;;-142.75;62.65
41632;BME280;37452;51.938;4.624;2023-05-03T11:29:23;77576.31;;;-142.75;62.51
41632;BME280;37452;51.938;4.624;2023-05-03T11:31:50;77560.56;;;-142.75;60.79
41632;BME280;37452;51.938;4.624;2023-05-03T11:34:15;77511.34;;;-142.75;61.41
41632;BME280;37452;51.938;4.624;2023-05-03T11:36:40;77501.50;;;-142.75;60.92
41632;BME280;37452;51.938;4.624;2023-05-03T11:39:06;77473.94;;;-142.75;60.00
41632;BME280;37452;51.938;4.624;2023-05-03T11:41:32;77424.69;;;-142.75;60.50
41632;BME280;37452;51.938;4.624;2023-05-03T11:43:57;77389.25;;;-142.75;58.01
41632;BME280;37452;51.938;4.624;2023-05-03T11:46:23;77426.66;;;-142.75;60.59
41632;BME280;37452;51.938;4.624;2023-05-03T11:48:49;77448.34;;;-142.75;61.93
41632;BME280;37452;51.938;4.624;2023-05-03T11:51:18;77523.16;;;-142.75;63.17
41632;BME280;37452;51.938;4.624;2023-05-03T11:53:45;77436.50;;;-142.75;59.79
41632;BME280;37452;51.938;4.624;2023-05-03T11:56:12;77460.13;;;-142.75;59.10
41632;BME280;37452;51.938;4.624;2023-05-03T11:58:48;77436.50;;;-142.75;57.13
41632;BME280;37452;51.938;4.624;2023-05-03T12:01:15;77422.72;;;-142.75;58.17
41632;BME280;37452;51.938;4.624;2023-05-03T12:03:40;77454.25;;;-142.75;61.62
41632;BME280;37452;51.938;4.624;2023-05-03T12:06:05;77473.94;;;-142.75;59.99
41632;BME280;37452;51.938;4.624;2023-05-03T12:08:32;77460.13;;;-142.75;61.66
41632;BME280;37452;51.938;4.624;2023-05-03T12:10:59;77434.53;;;-142.75;61.97
41632;BME280;37452;51.938;4.624;2023-05-03T12:13:32;77444.38;;;-142.75;60.59
41632;BME280;37452;51.938;4.624;2023-05-03T12:15:59;77475.91;;;-142.75;62.25
41632;BME280;37452;51.938;4.624;2023-05-03T12:18:25;77406.97;;;-142.75;62.86
41632;BME280;37452;51.938;4.624;2023-05-03T12:20:54;77393.19;;;-142.75;62.66
41632;BME280;37452;51.938;4.624;2023-05-03T12:23:21;77365.63;;;-142.75;61.11
41632;BME280;37452;51.938;4.624;2023-05-03T12:25:46;77408.94;;;-142.75;60.63
41632;BME280;37452;51.938;4.624;2023-05-03T12:28:11;77397.13;;;-142.75;61.16
41632;BME280;37452;51.938;4.624;2023-05-03T12:30:37;77405.00;;;-142.75;58.68
41632;BME280;37452;51.938;4.624;2023-05-03T12:33:02;77397.13;;;-142.75;60.14
41632;BME280;37452;51.938;4.624;2023-05-03T12:35:27;77393.19;;;-142.75;58.82
41632;BME280;37452;51.938;4.624;2023-05-03T12:37:52;77322.31;;;-142.75;62.55
41632;BME280;37452;51.938;4.624;2023-05-03T12:40:18;77365.63;;;-142.75;59.35
41632;BME280;37452;51.938;4.624;2023-05-03T12:42:52;77314.44;;;-142.75;58.96
41632;BME280;37452;51.938;4.624;2023-05-03T12:45:17;77399.09;;;-142.75;57.36
41632;BME280;37452;51.938;4.624;2023-05-03T12:47:42;77440.44;;;-142.75;61.13
41632;BME280;37452;51.938;4.624;2023-05-03T12:50:07;77436.50;;;-142.75;60.05
41632;BME280;37452;51.938;4.624;2023-05-03T12:52:33;77377.44;;;-142.75;61.28
41632;BME280;37452;51.938;4.624;2023-05-03T12:54:58;77338.06;;;-142.75;61.32